Time;durP1;ratioP1;P1;durP2;ratioP2;P2;SDS_P1;SDS_P2;PMS_P1;PMS_P2;Temp;Humidity;BMP_temperature;BMP_pressure;BME280_temperature;BME280_humidity;BME280_pressure;Samples;Min_cycle;Max_cycle;Signal;HPM_P1;HPM_P2
2023/10/29 00:02:10;;;;;;;5.88;3.10;;;;;;;11.99;100.00;99432.50;5058066;28;20025;-84
2023/10/29 00:04:39;;;;;;;4.95;2.78;;;;;;;11.96;100.00;99425.72;5056980;28;20390;-83
2023/10/29 00:07:05;;;;;;;6.40;3.17;;;;;;;12.01;100.00;99427.06;5055305;28;20021;-83
2023/10/29 00:09:32;;;;;;;6.40;2.63;;;;;;;11.96;100.00;99434.31;5056095;28;20478;-84
2023/10/29 00:11:58;;;;;;;5.88;3.13;;;;;;;12.01;100.00;99438.50;5055892;28;20055;-84
2023/10/29 00:14:24;;;;;;;7.47;3.28;;;;;;;11.96;100.00;99420.00;5056285;28;20017;-84
2023/10/29 00:16:51;;;;;;;7.60;3.35;;;;;;;12.01;100.00;99430.66;5054930;28;20071;-84
2023/10/29 00:19:17;;;;;;;6.18;3.40;;;;;;;11.97;100.00;99430.16;5056221;28;20024;-85
2023/10/29 00:21:57;;;;;;;5.13;2.83;;;;;;;12.01;100.00;99435.63;5054476;28;20032;-83
2023/10/29 00:24:24;;;;;;;10.95;3.40;;;;;;;11.91;100.00;99429.41;5052596;28;20037;-84
2023/10/29 00:26:51;;;;;;;5.90;2.92;;;;;;;11.97;100.00;99441.63;5055235;28;20029;-84
2023/10/29 00:29:18;;;;;;;8.70;3.55;;;;;;;11.95;100.00;99432.78;5055824;28;20112;-84
2023/10/29 00:31:45;;;;;;;6.47;3.35;;;;;;;11.91;100.00;99435.13;5048935;28;20390;-84
2023/10/29 00:34:10;;;;;;;5.32;2.80;;;;;;;11.88;100.00;99435.38;5054051;28;20039;-84
2023/10/29 00:36:35;;;;;;;4.97;2.72;;;;;;;11.82;100.00;99439.03;5054255;28;20124;-86
2023/10/29 00:39:03;;;;;;;6.28;2.70;;;;;;;11.74;100.00;99440.88;5055595;28;20075;-86
2023/10/29 00:41:30;;;;;;;7.30;2.67;;;;;;;11.66;100.00;99445.59;5036634;28;20048;-86
2023/10/29 00:43:57;;;;;;;4.63;2.75;;;;;;;11.60;100.00;99449.75;5056083;28;20091;-84
2023/10/29 00:46:27;;;;;;;5.38;3.08;;;;;;;11.43;100.00;99444.00;5054543;28;20127;-85
2023/10/29 00:48:58;;;;;;;5.90;3.20;;;;;;;11.33;100.00;99439.84;5048834;28;20131;-85
2023/10/29 00:51:25;;;;;;;;;;;;;;;11.32;100.00;99450.50;5075942;28;20032;-84
2023/10/29 00:53:51;;;;;;;6.05;2.58;;;;;;;11.25;100.00;99450.25;5055295;28;19909;-84
2023/10/29 00:56:18;;;;;;;6.32;3.15;;;;;;;11.23;100.00;99447.91;5067755;28;20070;-84
2023/10/29 00:58:59;;;;;;;6.43;2.80;;;;;;;11.16;100.00;99442.72;5069145;28;20024;-83
2023/10/29 01:01:27;;;;;;;6.57;3.30;;;;;;;11.18;100.00;99445.81;5046927;28;20029;-84
2023/10/29 01:03:53;;;;;;;4.25;2.50;;;;;;;10.95;100.00;99424.97;5040171;28;20041;-84
2023/10/29 01:06:26;;;;;;;8.70;2.83;;;;;;;10.99;100.00;99439.00;5033816;28;20104;-84
2023/10/29 01:08:54;;;;;;;4.05;2.58;;;;;;;11.07;100.00;99450.72;5034371;28;20192;-84
2023/10/29 01:11:19;;;;;;;4.68;2.88;;;;;;;10.91;100.00;99427.31;5034567;28;20025;-85
2023/10/29 01:13:47;;;;;;;6.13;3.17;;;;;;;10.89;100.00;99435.59;5034202;28;20089;-86
2023/10/29 01:16:12;;;;;;;4.90;2.85;;;;;;;10.93;100.00;99446.78;5034172;28;20093;-84
2023/10/29 01:18:39;;;;;;;4.38;2.72;;;;;;;10.85;100.00;99451.44;5035050;28;20025;-84
2023/10/29 01:21:05;;;;;;;10.43;3.42;;;;;;;10.64;100.00;99424.38;5034391;28;20044;-84
2023/10/29 01:23:31;;;;;;;8.35;3.03;;;;;;;10.69;100.00;99444.38;5035146;28;20495;-83
2023/10/29 01:25:57;;;;;;;4.85;2.45;;;;;;;10.62;100.00;99435.53;5031929;28;20048;-84
2023/10/29 01:28:25;;;;;;;6.50;2.92;;;;;;;10.51;100.00;99439.94;5035382;28;20434;-85
2023/10/29 01:30:51;;;;;;;6.05;2.92;;;;;;;10.49;100.00;99444.56;5035456;28;20175;-84
2023/10/29 01:33:18;;;;;;;4.63;2.70;;;;;;;10.40;100.00;99442.72;5035305;28;20390;-84
2023/10/29 01:35:44;;;;;;;4.50;2.58;;;;;;;10.36;100.00;99436.50;5035220;28;20013;-85
2023/10/29 01:38:10;;;;;;;3.85;2.35;;;;;;;10.35;100.00;99442.69;5035395;28;20022;-84
2023/10/29 01:40:35;;;;;;;7.05;2.47;;;;;;;10.29;100.00;99419.84;5037835;28;20501;-85
2023/10/29 01:43:02;;;;;;;8.80;2.75;;;;;;;10.44;100.00;99436.75;5041038;28;20443;-83
2023/10/29 01:45:29;;;;;;;3.35;2.10;;;;;;;10.55;100.00;99442.53;5037654;28;20036;-85
2023/10/29 01:47:55;;;;;;;6.38;2.50;;;;;;;10.64;100.00;99442.28;5037046;28;20112;-83
2023/10/29 01:50:21;;;;;;;6.28;2.60;;;;;;;10.71;100.00;99436.09;5042666;28;20037;-83
2023/10/29 01:52:46;;;;;;;4.13;2.13;;;;;;;10.67;100.00;99424.13;5019168;28;20018;-84
2023/10/29 01:55:14;;;;;;;5.28;2.53;;;;;;;10.76;100.00;99423.13;5039070;28;20021;-84
2023/10/29 01:57:41;;;;;;;4.65;2.60;;;;;;;10.80;100.00;99415.06;5039314;28;20021;-84
2023/10/29 02:00:09;;;;;;;2.20;1.75;;;;;;;10.91;100.00;99423.66;5036847;28;20029;-86
2023/10/29 02:02:34;;;;;;;4.05;1.90;;;;;;;10.87;100.00;99408.84;5038245;28;20370;-84
2023/10/29 02:05:06;;;;;;;9.70;2.20;;;;;;;11.09;100.00;99426.03;5036482;28;20133;-85
2023/10/29 02:07:31;;;;;;;5.57;2.20;;;;;;;11.10;100.00;99421.09;5036337;28;20174;-85
2023/10/29 02:09:57;;;;;;;5.38;2.53;;;;;;;11.20;100.00;99431.00;5020348;28;20514;-86
2023/10/29 02:12:23;;;;;;;4.20;2.50;;;;;;;11.12;100.00;99407.88;5037781;28;20466;-84
2023/10/29 02:14:54;;;;;;;5.63;2.22;;;;;;;11.31;100.00;99425.31;5036905;28;20033;-83
2023/10/29 02:17:24;;;;;;;5.03;2.15;;;;;;;11.37;100.00;99421.13;5036563;28;20049;-85
2023/10/29 02:19:51;;;;;;;9.18;2.28;;;;;;;11.42;100.00;99422.41;5037753;28;20099;-85
2023/10/29 02:22:18;;;;;;;3.80;2.17;;;;;;;11.42;100.00;99427.38;5031281;28;20096;-84
2023/10/29 02:24:44;;;;;;;7.13;2.40;;;;;;;11.48;100.00;99425.28;5036912;28;20036;-84
2023/10/29 02:27:10;;;;;;;5.05;2.15;;;;;;;11.52;100.00;99425.81;5038012;28;20036;-84
2023/10/29 02:29:36;;;;;;;5.72;2.10;;;;;;;11.53;100.00;99419.56;5038192;28;20025;-84
2023/10/29 02:32:03;;;;;;;4.68;2.42;;;;;;;11.55;100.00;99422.69;5038695;28;20056;-84
2023/10/29 02:34:29;;;;;;;7.65;2.92;;;;;;;11.54;100.00;99421.13;5042985;28;20032;-84
2023/10/29 02:36:57;;;;;;;3.53;1.95;;;;;;;11.51;100.00;99413.59;5046716;28;20034;-81
2023/10/29 02:39:23;;;;;;;4.15;2.10;;;;;;;11.64;100.00;99424.50;5049670;28;20025;-82
2023/10/29 02:41:51;;;;;;;4.95;1.70;;;;;;;11.66;100.00;99422.69;5048393;28;20089;-83
2023/10/29 02:44:17;;;;;;;4.70;2.33;;;;;;;11.70;100.00;99436.72;5021514;28;20036;-84
2023/10/29 02:46:43;;;;;;;5.65;2.38;;;;;;;11.71;100.00;99429.72;5039297;28;20024;-86
2023/10/29 02:49:09;;;;;;;4.22;2.25;;;;;;;11.74;100.00;99440.88;5036368;28;20041;-84
2023/10/29 02:51:35;;;;;;;5.75;1.58;;;;;;;11.53;100.00;99393.03;5038505;28;20122;-83
2023/10/29 02:54:02;;;;;;;5.80;2.25;;;;;;;11.80;100.00;99426.56;5037253;28;20075;-84
2023/10/29 02:56:30;;;;;;;3.60;1.60;;;;;;;11.84;100.00;99416.41;5003583;28;20091;-84
2023/10/29 02:58:57;;;;;;;3.90;1.88;;;;;;;11.77;100.00;99408.34;5037859;28;20029;-84
2023/10/29 03:01:23;;;;;;;3.75;1.77;;;;;;;11.79;100.00;99402.09;5036666;28;20040;-85
2023/10/29 03:03:51;;;;;;;4.47;2.00;;;;;;;11.89;100.00;99423.41;5036442;28;20037;-84
2023/10/29 03:06:16;;;;;;;4.40;1.80;;;;;;;11.91;100.00;99426.56;5035836;28;20414;-84
2023/10/29 03:08:42;;;;;;;3.72;1.70;;;;;;;11.92;100.00;99430.94;5036108;28;20026;-84
2023/10/29 03:11:08;;;;;;;5.25;2.10;;;;;;;11.90;100.00;99438.53;5037271;28;20045;-83
2023/10/29 03:13:35;;;;;;;3.47;2.00;;;;;;;11.91;100.00;99443.72;5037450;28;20084;-84
2023/10/29 03:16:03;;;;;;;3.80;2.20;;;;;;;11.84;100.00;99422.13;5037365;28;20045;-84
2023/10/29 03:18:29;;;;;;;6.82;2.00;;;;;;;11.90;100.00;99436.44;5037951;28;20159;-84
2023/10/29 03:20:55;;;;;;;5.47;2.10;;;;;;;11.90;100.00;99427.84;5038443;28;20095;-83
2023/10/29 03:23:24;;;;;;;4.30;2.08;;;;;;;11.82;100.00;99421.88;5037011;28;20037;-83
2023/10/29 03:25:51;;;;;;;5.25;2.78;;;;;;;11.90;100.00;99441.38;5036650;28;20034;-84
2023/10/29 03:28:17;;;;;;;6.55;2.45;;;;;;;11.89;100.00;99431.22;5020031;28;20025;-83
2023/10/29 03:30:43;;;;;;;6.35;2.45;;;;;;;11.89;100.00;99419.78;5037255;28;20104;-85
2023/10/29 03:33:09;;;;;;;2.45;2.13;;;;;;;11.91;100.00;99429.41;5036089;28;20101;-85
2023/10/29 03:35:34;;;;;;;7.22;2.40;;;;;;;11.92;100.00;99418.72;5037209;28;20462;-85
2023/10/29 03:38:00;;;;;;;4.15;2.40;;;;;;;11.95;100.00;99418.47;5036535;28;20025;-83
2023/10/29 03:40:27;;;;;;;3.90;2.10;;;;;;;11.92;100.00;99410.91;5036485;28;20492;-84
2023/10/29 03:42:54;;;;;;;4.93;2.22;;;;;;;11.96;100.00;99414.28;5019615;28;20425;-86
2023/10/29 03:45:19;;;;;;;3.75;2.08;;;;;;;11.93;100.00;99405.97;5035732;28;20037;-84
2023/10/29 03:47:47;;;;;;;7.72;2.40;;;;;;;11.97;100.00;99406.47;5036203;28;20118;-84
2023/10/29 03:50:12;;;;;;;11.65;3.10;;;;;;;11.97;100.00;99412.97;5036779;28;20040;-85
2023/10/29 03:52:38;;;;;;;10.40;3.97;;;;;;;11.95;100.00;99404.16;5036646;28;20022;-86
2023/10/29 03:55:04;;;;;;;7.38;3.47;;;;;;;11.89;100.00;99409.09;5035382;28;20036;-84
2023/10/29 03:57:30;;;;;;;8.70;3.67;;;;;;;11.83;100.00;99402.59;5035546;28;20029;-84
2023/10/29 03:59:56;;;;;;;6.90;3.15;;;;;;;11.74;100.00;99402.91;5036565;28;20113;-84
2023/10/29 04:02:36;;;;;;;5.38;3.38;;;;;;;11.63;100.00;99402.91;5036643;28;20116;-83
2023/10/29 04:05:02;;;;;;;10.57;3.25;;;;;;;11.37;100.00;99383.94;5036119;28;20026;-82
2023/10/29 04:07:29;;;;;;;10.70;4.07;;;;;;;11.44;100.00;99411.25;5037031;28;20033;-84
2023/10/29 04:09:56;;;;;;;7.90;3.40;;;;;;;11.33;100.00;99405.53;5036874;28;20489;-83
2023/10/29 04:12:22;;;;;;;8.77;3.72;;;;;;;11.26;100.00;99409.72;5019211;28;20111;-86
2023/10/29 04:14:47;;;;;;;13.55;3.50;;;;;;;11.19;100.00;99407.34;5036302;28;20471;-84
2023/10/29 04:17:13;;;;;;;7.82;3.15;;;;;;;11.02;100.00;99389.38;5035954;28;20087;-84
2023/10/29 04:19:40;;;;;;;9.35;3.65;;;;;;;11.05;100.00;99411.22;5035000;28;20022;-83
2023/10/29 04:22:05;;;;;;;14.35;5.07;;;;;;;10.98;100.00;99409.63;5036582;28;20466;-83
2023/10/29 04:24:32;;;;;;;13.82;4.55;;;;;;;10.87;100.00;99398.22;5034824;28;20036;-84
2023/10/29 04:27:01;;;;;;;12.35;4.40;;;;;;;10.82;100.00;99396.13;5035741;28;20060;-84
2023/10/29 04:29:28;;;;;;;9.13;3.40;;;;;;;10.83;100.00;99402.59;5034639;28;20017;-84
2023/10/29 04:31:55;;;;;;;7.50;3.38;;;;;;;10.76;100.00;99401.03;5035940;28;20108;-82
2023/10/29 04:34:21;;;;;;;5.95;2.30;;;;;;;10.70;100.00;99399.47;5035520;28;20025;-84
2023/10/29 04:36:52;;;;;;;6.30;3.50;;;;;;;10.69;100.00;99407.25;5036810;28;20036;-83
2023/10/29 04:39:20;;;;;;;6.18;2.47;;;;;;;10.65;100.00;99414.50;5034875;28;20450;-84
2023/10/29 04:41:46;;;;;;;9.80;3.70;;;;;;;10.65;100.00;99421.00;5035830;28;20029;-84
2023/10/29 04:44:14;;;;;;;11.40;3.80;;;;;;;10.61;100.00;99426.19;5035502;28;20040;-84
2023/10/29 04:46:39;;;;;;;8.43;2.80;;;;;;;10.57;100.00;99422.03;5018493;28;20027;-84
2023/10/29 04:49:05;;;;;;;8.25;3.85;;;;;;;10.50;100.00;99435.50;5034341;28;20125;-84
2023/10/29 04:51:31;;;;;;;5.88;2.85;;;;;;;10.45;100.00;99424.84;5035587;28;20033;-84
2023/10/29 04:53:56;;;;;;;7.07;3.17;;;;;;;10.41;100.00;99435.72;5035913;28;20485;-84
2023/10/29 04:56:22;;;;;;;9.60;3.53;;;;;;;10.35;100.00;99431.28;5035662;28;20021;-84
2023/10/29 04:58:49;;;;;;;3.97;2.33;;;;;;;10.35;100.00;99431.28;5035607;28;20021;-84
2023/10/29 05:01:29;;;;;;;11.55;2.75;;;;;;;10.39;100.00;99431.81;5017735;28;20057;-84
2023/10/29 05:03:57;;;;;;;16.85;3.40;;;;;;;10.41;100.00;99424.31;5035886;28;20034;-84
2023/10/29 05:06:22;;;;;;;5.45;2.72;;;;;;;10.45;100.00;99419.13;5033397;28;20033;-83
2023/10/29 05:08:49;;;;;;;9.00;3.17;;;;;;;10.54;100.00;99418.09;5034539;28;20029;-83
2023/10/29 05:11:15;;;;;;;6.80;2.65;;;;;;;10.62;100.00;99415.56;5036533;28;20033;-84
2023/10/29 05:13:41;;;;;;;8.85;3.38;;;;;;;10.68;100.00;99414.25;5035876;28;20104;-83
2023/10/29 05:16:10;;;;;;;8.80;3.17;;;;;;;10.78;100.00;99409.84;5035594;28;20022;-82
2023/10/29 05:18:37;;;;;;;7.68;3.13;;;;;;;10.80;100.00;99398.69;5037746;28;20075;-83
2023/10/29 05:21:03;;;;;;;8.38;3.65;;;;;;;10.87;100.00;99401.06;5039805;28;20037;-84
2023/10/29 05:23:29;;;;;;;9.57;2.97;;;;;;;11.01;100.00;99407.06;5047524;28;20463;-82
2023/10/29 05:25:55;;;;;;;7.80;3.08;;;;;;;11.07;100.00;99402.91;5044738;28;20128;-84
2023/10/29 05:28:22;;;;;;;4.40;2.10;;;;;;;11.12;100.00;99392.81;5021591;28;20038;-84
2023/10/29 05:30:48;;;;;;;5.80;2.65;;;;;;;11.17;100.00;99394.88;5041161;28;20025;-84
2023/10/29 05:33:15;;;;;;;3.97;2.17;;;;;;;11.20;100.00;99379.53;5041230;28;20013;-83
2023/10/29 05:35:40;;;;;;;4.07;1.52;;;;;;;11.24;100.00;99385.78;5039599;28;20049;-84
2023/10/29 05:38:06;;;;;;;3.33;1.85;;;;;;;11.28;100.00;99371.97;5038642;28;20025;-85
2023/10/29 05:40:32;;;;;;;4.80;2.10;;;;;;;11.27;100.00;99367.59;5039349;28;20542;-84
2023/10/29 05:42:58;;;;;;;5.18;2.08;;;;;;;11.26;100.00;99357.44;5042032;28;20032;-85
2023/10/29 05:45:27;;;;;;;4.63;2.15;;;;;;;11.32;100.00;99364.69;5043814;28;20025;-85
2023/10/29 05:47:52;;;;;;;5.50;1.67;;;;;;;11.29;100.00;99367.84;5022947;28;20441;-84
2023/10/29 05:50:18;;;;;;;3.05;1.95;;;;;;;11.29;100.00;99360.03;5030299;28;20033;-82
2023/10/29 05:52:45;;;;;;;4.93;2.80;;;;;;;11.28;100.00;99367.03;5054287;28;20025;-83
2023/10/29 05:55:12;;;;;;;6.18;2.58;;;;;;;11.29;100.00;99371.47;5052786;28;20022;-84
2023/10/29 05:57:39;;;;;;;5.80;3.15;;;;;;;11.28;100.00;99369.13;5039648;28;20034;-84
2023/10/29 06:00:05;;;;;;;3.88;2.38;;;;;;;11.23;100.00;99378.47;5039381;28;20032;-83
2023/10/29 06:02:32;;;;;;;4.70;2.30;;;;;;;11.20;100.00;99377.47;5038376;28;20104;-84
2023/10/29 06:04:58;;;;;;;4.93;2.63;;;;;;;11.14;100.00;99378.75;5038941;28;20031;-85
2023/10/29 06:07:23;;;;;;;5.05;1.88;;;;;;;11.13;100.00;99392.25;5038495;28;20021;-84
2023/10/29 06:09:50;;;;;;;6.03;2.20;;;;;;;11.10;100.00;99387.56;5020871;28;20544;-85
2023/10/29 06:12:18;;;;;;;2.70;1.67;;;;;;;11.01;100.00;99384.19;5037262;28;20037;-84
2023/10/29 06:14:45;;;;;;;3.05;1.70;;;;;;;11.07;100.00;99382.13;5037548;28;20053;-84
2023/10/29 06:17:12;;;;;;;6.53;3.08;;;;;;;11.05;100.00;99384.69;5038520;28;20398;-84
2023/10/29 06:19:40;;;;;;;8.10;2.70;;;;;;;11.06;100.00;99386.25;5038716;28;20083;-83
2023/10/29 06:22:08;;;;;;;2.20;1.55;;;;;;;10.90;100.00;99356.38;5038747;28;20529;-83
2023/10/29 06:24:36;;;;;;;3.60;1.95;;;;;;;11.07;100.00;99382.13;5036319;28;20037;-84
2023/10/29 06:27:03;;;;;;;3.65;1.83;;;;;;;11.09;100.00;99368.06;5037560;28;20022;-85
2023/10/29 06:29:29;;;;;;;3.40;1.75;;;;;;;11.16;100.00;99379.81;5038335;28;20426;-84
2023/10/29 06:31:55;;;;;;;4.68;1.55;;;;;;;11.18;100.00;99382.13;5036916;28;20072;-85
2023/10/29 06:34:22;;;;;;;5.47;2.17;;;;;;;11.21;100.00;99387.59;5038020;28;20055;-83
2023/10/29 06:36:48;;;;;;;3.47;1.83;;;;;;;11.28;100.00;99386.28;5004061;28;20021;-86
2023/10/29 06:39:16;;;;;;;3.05;1.77;;;;;;;11.23;100.00;99376.41;5039299;28;20033;-83
2023/10/29 06:41:43;;;;;;;4.30;1.70;;;;;;;11.31;100.00;99390.97;5037753;28;20466;-84
2023/10/29 06:44:08;;;;;;;3.72;2.35;;;;;;;11.29;100.00;99382.91;5038849;28;20036;-84
2023/10/29 06:46:34;;;;;;;2.83;2.03;;;;;;;11.17;100.00;99357.72;5038642;28;20021;-84
2023/10/29 06:49:01;;;;;;;2.45;1.90;;;;;;;11.38;100.00;99396.94;5036912;28;20108;-85
2023/10/29 06:51:26;;;;;;;4.35;2.22;;;;;;;11.36;100.00;99393.06;5036617;28;20056;-84
2023/10/29 06:53:52;;;;;;;5.53;1.95;;;;;;;11.45;100.00;99401.38;5037412;28;20064;-85
2023/10/29 06:56:19;;;;;;;4.22;2.25;;;;;;;11.44;100.00;99394.09;5036289;28;20087;-85
2023/10/29 06:58:47;;;;;;;3.92;1.75;;;;;;;11.53;100.00;99405.25;5037730;28;20097;-85
2023/10/29 07:01:13;;;;;;;5.95;1.55;;;;;;;11.57;100.00;99391.47;5036611;28;20482;-84
2023/10/29 07:03:42;;;;;;;3.90;1.50;;;;;;;11.65;100.00;99397.44;5037022;28;20091;-85
2023/10/29 07:06:27;;;;;;;4.68;1.98;;;;;;;11.39;100.00;99358.47;5037425;28;20052;-86
2023/10/29 07:08:54;;;;;;;4.85;1.70;;;;;;;11.69;100.00;99392.22;5037432;28;20067;-84
2023/10/29 07:11:19;;;;;;;6.05;2.08;;;;;;;11.69;100.00;99398.75;5036223;28;20021;-86
2023/10/29 07:13:46;;;;;;;2.53;1.63;;;;;;;11.81;100.00;99400.25;5037324;28;20471;-84
2023/10/29 07:16:16;;;;;;;4.32;1.85;;;;;;;11.90;100.00;99407.81;5036303;28;20225;-85
2023/10/29 07:18:43;;;;;;;5.38;2.45;;;;;;;11.97;100.00;99412.97;5037188;28;20021;-85
2023/10/29 07:21:08;;;;;;;2.30;1.67;;;;;;;12.17;100.00;99418.38;5036406;28;20033;-84
2023/10/29 07:23:35;;;;;;;3.92;1.98;;;;;;;12.54;100.00;99415.16;5037023;28;20128;-85
2023/10/29 07:26:00;;;;;;;4.05;1.17;;;;;;;12.66;100.00;99393.72;5035894;28;20024;-85
2023/10/29 07:28:28;;;;;;;4.40;1.98;;;;;;;13.10;100.00;99423.41;5034571;28;20045;-85
2023/10/29 07:30:56;;;;;;;4.47;1.83;;;;;;;13.27;100.00;99417.56;5036750;28;20439;-84
2023/10/29 07:33:23;;;;;;;4.05;1.60;;;;;;;13.34;100.00;99411.25;5036778;28;20041;-84
2023/10/29 07:35:49;;;;;;;3.35;1.70;;;;;;;13.44;100.00;99412.47;5037460;28;20085;-84
2023/10/29 07:38:15;;;;;;;3.50;1.67;;;;;;;13.61;100.00;99393.03;5037542;28;20114;-85
2023/10/29 07:40:41;;;;;;;4.38;1.63;;;;;;;14.19;100.00;99407.81;5035053;28;20029;-84
2023/10/29 07:43:09;;;;;;;3.65;1.48;;;;;;;14.71;100.00;99410.31;5035952;28;20029;-84
2023/10/29 07:45:37;;;;;;;7.22;1.60;;;;;;;15.40;100.00;99411.63;5036769;28;20036;-85
2023/10/29 07:48:04;;;;;;;4.35;1.35;;;;;;;16.08;100.00;99395.50;5035040;28;20045;-83
2023/10/29 07:50:31;;;;;;;4.57;1.50;;;;;;;16.50;100.00;99371.28;5036980;28;20026;-84
2023/10/29 07:52:57;;;;;;;2.33;1.40;;;;;;;16.88;100.00;99376.81;5037063;28;20018;-84
2023/10/29 07:55:23;;;;;;;3.10;1.73;;;;;;;17.37;100.00;99386.38;5036658;28;20029;-82
2023/10/29 07:57:48;;;;;;;4.60;1.45;;;;;;;17.54;100.00;99380.19;5035422;28;20029;-83
2023/10/29 08:00:16;;;;;;;4.60;1.40;;;;;;;17.60;100.00;99383.72;5036474;28;20505;-84
2023/10/29 08:02:44;;;;;;;8.70;1.55;;;;;;;17.59;100.00;99390.03;5036071;28;20045;-85
2023/10/29 08:05:11;;;;;;;2.03;1.33;;;;;;;17.60;100.00;99380.03;5018255;28;20048;-85
2023/10/29 08:07:39;;;;;;;2.55;1.52;;;;;;;17.51;100.00;99369.00;5033305;28;20041;-84
2023/10/29 08:10:06;;;;;;;2.58;1.40;;;;;;;17.40;100.00;99378.69;5002576;28;20536;-83
2023/10/29 08:12:34;;;;;;;4.38;1.60;;;;;;;17.07;100.00;99354.31;5032588;28;20041;-85
2023/10/29 08:15:00;;;;;;;3.10;1.30;;;;;;;17.18;100.00;99373.47;5036080;28;20042;-83
2023/10/29 08:17:29;;;;;;;3.58;1.40;;;;;;;17.14;100.00;99365.13;5035676;28;20025;-84
2023/10/29 08:19:58;;;;;;;7.35;1.58;;;;;;;17.04;100.00;99364.09;5036371;28;20083;-84
2023/10/29 08:22:26;;;;;;;4.28;1.58;;;;;;;16.91;100.00;99369.91;5036299;28;20552;-85
2023/10/29 08:24:51;;;;;;;3.50;1.10;;;;;;;16.85;100.00;99361.38;5019095;28;20498;-85
2023/10/29 08:27:18;;;;;;;1.90;1.33;;;;;;;16.82;100.00;99364.59;5034955;28;20033;-84
2023/10/29 08:29:45;;;;;;;5.10;1.50;;;;;;;16.79;100.00;99360.75;5034469;28;20029;-84
2023/10/29 08:32:12;;;;;;;3.03;1.52;;;;;;;16.78;100.00;99361.28;5035316;28;20489;-84
2023/10/29 08:34:40;;;;;;;4.05;1.90;;;;;;;16.84;100.00;99368.50;5035991;28;20025;-85
2023/10/29 08:37:06;;;;;;;3.25;1.45;;;;;;;16.85;100.00;99367.13;5035922;28;20026;-83
2023/10/29 08:39:34;;;;;;;3.58;1.35;;;;;;;16.81;100.00;99363.81;5035965;28;20056;-85
2023/10/29 08:42:02;;;;;;;2.05;1.30;;;;;;;16.81;100.00;99377.47;5034963;28;20026;-84
2023/10/29 08:44:30;;;;;;;2.75;1.55;;;;;;;16.77;100.00;99374.94;5036267;28;20044;-85
2023/10/29 08:46:58;;;;;;;2.42;1.42;;;;;;;16.80;100.00;99368.03;5036102;28;20491;-84
2023/10/29 08:49:23;;;;;;;2.90;1.48;;;;;;;16.72;100.00;99346.22;5035532;28;20064;-83
2023/10/29 08:51:50;;;;;;;4.68;1.30;;;;;;;16.88;100.00;99374.69;5034801;28;20364;-84
2023/10/29 08:54:16;;;;;;;2.50;1.35;;;;;;;16.74;100.00;99343.56;5035705;28;20416;-84
2023/10/29 08:56:41;;;;;;;3.40;1.42;;;;;;;16.78;100.00;99341.88;5018800;28;20025;-83
2023/10/29 08:59:06;;;;;;;3.63;1.70;;;;;;;16.85;100.00;99346.16;5035408;28;20475;-83
2023/10/29 09:01:32;;;;;;;3.78;1.30;;;;;;;16.82;100.00;99335.75;5040300;28;20037;-84
2023/10/29 09:03:58;;;;;;;2.95;1.58;;;;;;;16.93;100.00;99355.69;5030324;28;20044;-84
2023/10/29 09:06:24;;;;;;;2.90;1.73;;;;;;;16.74;100.00;99344.34;5048354;28;20483;-84
2023/10/29 09:08:51;;;;;;;3.28;1.15;;;;;;;16.60;100.00;99342.03;5035951;28;20083;-84
2023/10/29 09:11:18;;;;;;;5.35;2.10;;;;;;;16.58;100.00;99350.47;5034831;28;20037;-85
2023/10/29 09:13:44;;;;;;;3.30;1.85;;;;;;;16.60;100.00;99362.97;5035858;28;20065;-83
2023/10/29 09:16:10;;;;;;;4.00;2.00;;;;;;;16.45;100.00;99359.91;5035982;28;20029;-84
2023/10/29 09:18:35;;;;;;;4.25;1.50;;;;;;;16.30;100.00;99337.41;5035901;28;20459;-84
2023/10/29 09:21:01;;;;;;;2.55;1.50;;;;;;;16.49;100.00;99351.69;5034151;28;20033;-87
2023/10/29 09:23:27;;;;;;;4.68;1.70;;;;;;;16.52;100.00;99354.22;5035172;28;20026;-85
2023/10/29 09:25:53;;;;;;;4.47;1.80;;;;;;;16.72;100.00;99364.31;5034974;28;20421;-84
2023/10/29 09:28:21;;;;;;;2.53;1.75;;;;;;;16.82;100.00;99356.72;5035261;28;20033;-84
2023/10/29 09:30:47;;;;;;;3.05;1.55;;;;;;;16.89;100.00;99340.84;5034078;28;20022;-84
2023/10/29 09:33:13;;;;;;;5.82;1.60;;;;;;;17.09;100.00;99350.88;5021257;28;20060;-83
2023/10/29 09:35:39;;;;;;;2.95;1.58;;;;;;;17.15;100.00;99351.47;5054267;28;20021;-84
2023/10/29 09:38:04;;;;;;;1.63;1.30;;;;;;;17.30;100.00;99351.63;5056299;28;20014;-85
2023/10/29 09:40:30;;;;;;;3.25;1.77;;;;;;;17.35;100.00;99345.72;5057131;28;20061;-83
2023/10/29 09:42:56;;;;;;;3.25;1.80;;;;;;;17.43;100.00;99354.47;5050084;28;20060;-85
2023/10/29 09:45:27;;;;;;;3.10;1.48;;;;;;;17.35;100.00;99342.81;5050328;28;20025;-82
2023/10/29 09:47:53;;;;;;;;;;;;;;;17.30;100.00;99342.97;5049234;28;20050;-83
2023/10/29 09:50:19;;;;;;;2.17;1.20;;;;;;;17.18;100.00;99353.25;5040130;28;20000;-85
2023/10/29 09:52:48;;;;;;;3.42;1.52;;;;;;;17.12;100.00;99358.38;5036546;28;20029;-85
2023/10/29 09:55:14;;;;;;;5.18;1.67;;;;;;;17.09;100.00;99347.97;5036416;28;20033;-85
2023/10/29 09:57:39;;;;;;;3.47;1.77;;;;;;;16.85;100.00;99312.31;5036554;28;20071;-84
2023/10/29 10:00:06;;;;;;;3.42;1.77;;;;;;;17.11;100.00;99327.97;5035601;28;20454;-84
2023/10/29 10:02:31;;;;;;;5.30;2.13;;;;;;;17.08;100.00;99323.31;5034364;28;20037;-84
2023/10/29 10:04:57;;;;;;;5.35;2.15;;;;;;;17.20;100.00;99331.13;5035414;28;20466;-87
2023/10/29 10:07:23;;;;;;;3.63;1.77;;;;;;;17.19;100.00;99308.63;5034054;28;20041;-84
2023/10/29 10:09:54;;;;;;;5.72;2.15;;;;;;;17.34;100.00;99320.28;5033279;28;20112;-85
2023/10/29 10:12:20;;;;;;;3.83;2.05;;;;;;;17.43;100.00;99319.81;5034014;28;20111;-85
2023/10/29 10:14:47;;;;;;;5.85;1.90;;;;;;;17.42;100.00;99303.81;5037128;28;20025;-84
2023/10/29 10:17:13;;;;;;;2.75;2.00;;;;;;;17.45;100.00;99299.81;5020638;28;20024;-85
2023/10/29 10:19:39;;;;;;;6.15;1.73;;;;;;;17.55;100.00;99297.94;5038903;28;20022;-87
2023/10/29 10:22:05;;;;;;;3.88;2.13;;;;;;;17.65;100.00;99298.22;5020537;28;20033;-85
2023/10/29 10:24:46;;;;;;;5.43;1.83;;;;;;;17.77;100.00;99282.91;5036707;28;20033;-85
2023/10/29 10:27:12;;;;;;;3.00;1.80;;;;;;;17.92;100.00;99299.56;5036999;28;20033;-84
2023/10/29 10:29:38;;;;;;;3.40;2.10;;;;;;;17.98;100.00;99276.28;5036834;28;20026;-85
2023/10/29 10:32:05;;;;;;;2.70;1.73;;;;;;;18.17;100.00;99289.09;5020438;28;20375;-85
2023/10/29 10:34:33;;;;;;;2.75;1.90;;;;;;;18.18;100.00;99293.53;5038109;28;20049;-85
2023/10/29 10:37:00;;;;;;;5.85;1.95;;;;;;;18.11;100.00;99273.25;5020260;28;20025;-85
2023/10/29 10:39:31;;;;;;;2.47;1.70;;;;;;;18.30;100.00;99287.41;5038365;28;20482;-83
2023/10/29 10:41:58;;;;;;;5.28;2.05;;;;;;;18.27;100.00;99290.13;5037043;28;20033;-84
2023/10/29 10:44:26;;;;;;;3.97;2.25;;;;;;;18.21;100.00;99288.72;5037362;28;20028;-85
2023/10/29 10:46:54;;;;;;;4.60;1.83;;;;;;;18.24;100.00;99296.25;5037542;28;20022;-84
2023/10/29 10:49:21;;;;;;;2.88;1.80;;;;;;;18.30;100.00;99288.19;5037722;28;20045;-84
2023/10/29 10:51:48;;;;;;;4.30;2.15;;;;;;;18.37;100.00;99283.81;5038661;28;20021;-88
2023/10/29 10:54:17;;;;;;;4.68;1.88;;;;;;;18.44;100.00;99271.50;5039991;28;20494;-85
2023/10/29 10:56:43;;;;;;;4.18;2.25;;;;;;;18.48;100.00;99258.19;5040630;28;20375;-85
2023/10/29 10:59:09;;;;;;;3.15;1.83;;;;;;;18.73;100.00;99280.81;5039693;28;20021;-84
2023/10/29 11:01:35;;;;;;;3.92;2.00;;;;;;;18.71;100.00;99278.53;5040808;28;20018;-84
2023/10/29 11:04:03;;;;;;;3.08;2.00;;;;;;;18.56;100.00;99272.69;5038224;28;20033;-86
2023/10/29 11:06:32;;;;;;;4.68;2.50;;;;;;;18.30;100.00;99255.59;5037603;28;20022;-85
2023/10/29 11:08:59;;;;;;;2.53;2.00;;;;;;;18.22;100.00;99261.38;5039176;28;20465;-85
2023/10/29 11:11:29;;;;;;;6.35;2.25;;;;;;;18.20;100.00;99281.41;5038518;28;20025;-86
2023/10/29 11:14:08;;;;;;;4.70;1.90;;;;;;;18.14;100.00;99261.31;5037886;28;20049;-85
2023/10/29 11:16:33;;;;;;;3.38;1.90;;;;;;;17.97;100.00;99217.69;5036402;28;20089;-85
2023/10/29 11:18:59;;;;;;;3.97;2.97;;;;;;;18.20;100.00;99238.00;5038285;28;20484;-86
2023/10/29 11:21:35;;;;;;;4.45;1.83;;;;;;;18.28;100.00;99245.38;5037111;28;20032;-84
2023/10/29 11:24:22;;;;;;;6.47;2.05;;;;;;;18.31;100.00;99257.19;5037480;28;20363;-85